KBJC/BJC METAR and TAF weather

Enter ICAO airport designator
Station Type Date Time Source
KBJC METAR 2022/07/03 14:47 UTC NOAA

KBJC 031447Z 34005KT 10SM SCT120 23/09 A3007


Station Type Date Time Source
KBJC Decoded METAR 2022/07/03 14:47 UTC NOAA

Broomfield / Jeffco, CO, United States (KBJC) 39-55N 105-07W
Jul 03, 2022 - 10:47 AM EDT / 2022.07.03 1447 UTC
Wind: from the NNW (340 degrees) at 6 MPH (5 KT):0
Visibility: 10 mile(s):0
Sky conditions: partly cloudy
Temperature: 73 F (23 C)
Dew Point: 48 F (9 C)
Relative Humidity: 40%
Pressure (altimeter): 30.07 in. Hg (1018 hPa)
ob: KBJC 031447Z 34005KT 10SM SCT120 23/09 A3007
cycle: 15

Station Type Date Time Source
KBJC TAF 2022/07/03 14:42 UTC NOAA

TAF
AMD KBJC 031340Z 0314/0412 33007KT P6SM FEW120
FM031500 VRB06KT P6SM SCT090 BKN180
FM032000 03008KT P6SM VCTS SCT080CB BKN120
TEMPO 0320/0324 VRB20G30KT -TSRA BKN070CB
FM040000 23015KT P6SM VCSH SCT080 BKN120
FM040300 28005KT P6SM SCT120 BKN220

Example: see airport list